createdAt,value
2018-02-10T00:01:46.704Z,11.07
2018-02-10T00:04:15.654Z,10.33
2018-02-10T00:06:43.822Z,11.50
2018-02-10T00:09:11.978Z,10.90
2018-02-10T00:11:40.134Z,10.87
2018-02-10T00:14:08.998Z,10.27
2018-02-10T00:16:37.149Z,10.90
2018-02-10T00:19:05.309Z,10.10
2018-02-10T00:21:33.501Z,11.20
2018-02-10T00:24:01.780Z,11.30
2018-02-10T00:26:29.951Z,10.43
2018-02-10T00:28:58.263Z,10.13
2018-02-10T00:31:26.468Z,10.67
2018-02-10T00:33:54.736Z,10.30
2018-02-10T00:36:22.978Z,9.77
2018-02-10T00:38:51.882Z,10.47
2018-02-10T00:41:20.090Z,9.63
2018-02-10T00:43:48.969Z,9.37
2018-02-10T00:46:17.133Z,9.87
2018-02-10T00:48:45.311Z,9.30
2018-02-10T00:51:13.477Z,9.43
2018-02-10T00:53:41.672Z,9.70
2018-02-10T00:56:09.837Z,9.80
2018-02-10T00:58:38.007Z,10.13
2018-02-10T01:01:06.149Z,9.67
2018-02-10T01:03:35.055Z,9.10
2018-02-10T01:06:03.272Z,9.47
2018-02-10T01:08:31.418Z,9.43
2018-02-10T01:10:59.559Z,9.53
2018-02-10T01:13:28.481Z,9.93
2018-02-10T01:15:56.648Z,10.50
2018-02-10T01:18:24.849Z,10.00
2018-02-10T01:20:53.005Z,10.43
2018-02-10T01:23:21.164Z,10.10
2018-02-10T01:25:49.345Z,10.37
2018-02-10T01:28:18.449Z,10.30
2018-02-10T01:30:46.611Z,10.50
2018-02-10T01:33:14.745Z,11.00
2018-02-10T01:35:42.962Z,10.00
2018-02-10T01:38:11.112Z,11.53
2018-02-10T01:40:40.112Z,10.30
2018-02-10T01:43:08.292Z,11.40
2018-02-10T01:45:36.449Z,10.87
2018-02-10T01:48:05.374Z,10.77
2018-02-10T01:50:33.572Z,10.83
2018-02-10T01:53:01.724Z,11.03
2018-02-10T01:55:29.971Z,10.80
2018-02-10T01:57:58.199Z,10.37
2018-02-10T02:00:26.593Z,10.63
2018-02-10T02:02:54.741Z,10.70
2018-02-10T02:05:22.949Z,10.73
2018-02-10T02:07:51.114Z,10.10
2018-02-10T02:10:19.279Z,11.13
2018-02-10T02:12:47.441Z,10.17
2018-02-10T02:15:15.610Z,9.50
2018-02-10T02:17:43.827Z,9.80
2018-02-10T02:20:11.978Z,9.67
2018-02-10T02:22:40.759Z,9.57
2018-02-10T02:25:08.901Z,9.53
2018-02-10T02:27:37.060Z,8.73
2018-02-10T02:30:05.494Z,8.30
2018-02-10T02:32:33.694Z,8.37
2018-02-10T02:35:02.622Z,8.00
2018-02-10T02:37:30.808Z,7.90
2018-02-10T02:39:59.665Z,7.80
2018-02-10T02:42:28.582Z,7.90
2018-02-10T02:44:56.741Z,6.90
2018-02-10T02:47:24.901Z,6.50
2018-02-10T02:49:53.819Z,7.17
2018-02-10T02:52:21.976Z,7.07
2018-02-10T02:54:50.139Z,6.30
2018-02-10T02:57:18.283Z,6.07
2018-02-10T02:59:46.449Z,6.20
2018-02-10T03:02:14.574Z,6.17
2018-02-10T03:04:42.807Z,6.17
2018-02-10T03:07:11.019Z,5.83
2018-02-10T03:09:39.648Z,5.87
2018-02-10T03:12:07.807Z,5.60
2018-02-10T03:14:35.998Z,5.27
2018-02-10T03:17:04.162Z,5.70
2018-02-10T03:19:32.321Z,4.83
2018-02-10T03:22:00.518Z,5.60
2018-02-10T03:24:28.836Z,5.13
2018-02-10T03:26:57.006Z,5.17
2018-02-10T03:29:25.963Z,4.53
2018-02-10T03:31:54.095Z,4.70
2018-02-10T03:34:22.308Z,4.50
2018-02-10T03:36:50.448Z,4.17
2018-02-10T03:39:18.597Z,4.53
2018-02-10T03:41:46.756Z,4.27
2018-02-10T03:44:15.690Z,4.30
2018-02-10T03:46:43.833Z,3.90
2018-02-10T03:49:11.980Z,4.00
2018-02-10T03:51:40.133Z,3.87
2018-02-10T03:54:08.310Z,4.00
2018-02-10T03:56:36.475Z,3.60
2018-02-10T03:59:04.642Z,3.63
2018-02-10T04:01:32.865Z,3.43
2018-02-10T04:04:01.112Z,3.50
2018-02-10T04:06:29.357Z,3.87
2018-02-10T04:08:57.471Z,3.47
2018-02-10T04:11:25.695Z,3.30
2018-02-10T04:13:53.835Z,3.27
2018-02-10T04:16:22.757Z,3.53
2018-02-10T04:18:50.931Z,3.60
2018-02-10T04:21:19.174Z,3.50
2018-02-10T04:23:48.102Z,3.70
2018-02-10T04:26:16.256Z,3.43
2018-02-10T04:28:44.400Z,3.30
2018-02-10T04:31:13.329Z,3.27
2018-02-10T04:33:41.785Z,3.17
2018-02-10T04:36:10.700Z,3.27
2018-02-10T04:38:38.855Z,3.00
2018-02-10T04:41:07.788Z,3.13
2018-02-10T04:43:36.042Z,3.30
2018-02-10T04:46:04.223Z,3.00
2018-02-10T04:48:33.309Z,3.37
2018-02-10T04:51:01.513Z,3.40
2018-02-10T04:53:29.647Z,3.07
2018-02-10T04:55:57.880Z,3.27
2018-02-10T04:58:26.873Z,3.50
2018-02-10T05:00:55.020Z,3.43
2018-02-10T05:03:23.192Z,3.03
2018-02-10T05:05:52.055Z,3.63
2018-02-10T05:08:20.213Z,3.97
2018-02-10T05:10:49.157Z,3.57
2018-02-10T05:13:17.300Z,3.60
2018-02-10T05:15:45.454Z,3.77
2018-02-10T05:18:14.393Z,3.73
2018-02-10T05:20:42.529Z,3.93
2018-02-10T05:23:10.666Z,3.97
2018-02-10T05:25:38.817Z,3.80
2018-02-10T05:28:07.102Z,3.80
2018-02-10T05:30:35.305Z,3.60
2018-02-10T05:33:04.242Z,3.73
2018-02-10T05:35:32.389Z,3.50
2018-02-10T05:38:00.570Z,3.70
2018-02-10T05:40:28.723Z,3.30
2018-02-10T05:42:56.929Z,3.70
2018-02-10T05:45:25.923Z,3.50
2018-02-10T05:47:54.092Z,3.30
2018-02-10T05:50:22.220Z,3.30
2018-02-10T05:52:50.437Z,3.17
2018-02-10T05:55:18.673Z,3.60
2018-02-10T05:57:47.015Z,3.67
2018-02-10T06:00:15.227Z,3.80
2018-02-10T06:02:43.417Z,3.40
2018-02-10T06:05:11.589Z,3.10
2018-02-10T06:07:40.564Z,3.10
2018-02-10T06:10:08.714Z,3.20
2018-02-10T06:12:37.638Z,3.00
2018-02-10T06:15:06.573Z,2.77
2018-02-10T06:17:34.828Z,2.80
2018-02-10T06:20:03.141Z,2.40
2018-02-10T06:22:31.327Z,2.40
2018-02-10T06:24:59.563Z,2.30
2018-02-10T06:27:27.800Z,2.37
2018-02-10T06:29:56.026Z,2.20
2018-02-10T06:32:24.284Z,2.03
2018-02-10T06:34:52.453Z,2.10
2018-02-10T06:37:20.584Z,1.90
2018-02-10T06:39:48.745Z,1.70
2018-02-10T06:42:16.886Z,1.87
2018-02-10T06:44:45.030Z,1.73
2018-02-10T06:47:15.268Z,1.70
2018-02-10T06:49:43.450Z,1.70
2018-02-10T06:52:11.611Z,1.63
2018-02-10T06:54:40.689Z,1.60
2018-02-10T06:57:09.617Z,1.50
2018-02-10T06:59:37.754Z,1.80
2018-02-10T07:02:06.671Z,1.80
2018-02-10T07:04:34.823Z,1.80
2018-02-10T07:07:03.769Z,1.70
2018-02-10T07:09:31.928Z,1.77
2018-02-10T07:12:00.163Z,1.80
2018-02-10T07:14:29.062Z,2.10
2018-02-10T07:16:57.262Z,1.90
2018-02-10T07:19:25.392Z,1.90
2018-02-10T07:21:54.331Z,2.10
2018-02-10T07:24:22.493Z,2.30
2018-02-10T07:26:50.661Z,2.30
2018-02-10T07:29:18.888Z,2.13
2018-02-10T07:31:47.145Z,2.20
2018-02-10T07:34:15.375Z,2.40
2018-02-10T07:36:44.303Z,2.50
2018-02-10T07:39:12.483Z,2.47
2018-02-10T07:41:40.618Z,2.40
2018-02-10T07:44:08.826Z,2.30
2018-02-10T07:46:36.992Z,2.50
2018-02-10T07:49:05.144Z,2.70
2018-02-10T07:51:33.281Z,2.83
2018-02-10T07:54:01.440Z,2.60
2018-02-10T07:56:29.653Z,2.67
2018-02-10T07:58:58.577Z,2.67
2018-02-10T08:01:27.049Z,2.30
2018-02-10T08:03:55.218Z,2.57
2018-02-10T08:06:23.391Z,2.47
2018-02-10T08:08:51.577Z,2.83
2018-02-10T08:11:19.722Z,2.70
2018-02-10T08:13:47.854Z,2.93
2018-02-10T08:16:17.703Z,2.97
2018-02-10T08:18:45.909Z,2.77
2018-02-10T08:21:14.173Z,3.17
2018-02-10T08:23:42.336Z,2.83
2018-02-10T08:26:10.592Z,2.70
2018-02-10T08:28:38.819Z,2.63
2018-02-10T08:31:07.213Z,2.80
2018-02-10T08:33:35.424Z,2.80
2018-02-10T08:36:04.314Z,2.80
2018-02-10T08:38:33.232Z,2.80
2018-02-10T08:41:01.392Z,2.83
2018-02-10T08:43:29.534Z,2.97
2018-02-10T08:45:57.706Z,2.90
2018-02-10T08:48:25.861Z,2.97
2018-02-10T08:50:54.033Z,3.30
2018-02-10T08:53:22.978Z,2.77
2018-02-10T08:55:51.157Z,2.90
2018-02-10T08:58:19.899Z,3.13
2018-02-10T09:00:48.114Z,3.33
2018-02-10T09:03:16.293Z,3.43
2018-02-10T09:05:44.447Z,3.30
2018-02-10T09:08:13.444Z,3.10
2018-02-10T09:10:42.359Z,3.27
2018-02-10T09:13:10.514Z,3.20
2018-02-10T09:15:38.703Z,2.77
2018-02-10T09:18:06.831Z,3.10
2018-02-10T09:20:35.004Z,3.10
2018-02-10T09:23:03.164Z,3.33
2018-02-10T09:25:31.331Z,2.80
2018-02-10T09:27:59.465Z,3.23
2018-02-10T09:30:27.619Z,3.00
2018-02-10T09:32:56.532Z,2.77
2018-02-10T09:35:24.665Z,3.40
2018-02-10T09:37:52.875Z,3.33
2018-02-10T09:40:21.012Z,3.20
2018-02-10T09:42:49.171Z,3.07
2018-02-10T09:45:17.360Z,3.57
2018-02-10T09:47:45.457Z,3.50
2018-02-10T09:50:13.618Z,3.30
2018-02-10T09:52:42.532Z,3.13
2018-02-10T09:55:10.662Z,3.57
2018-02-10T09:57:38.793Z,3.27
2018-02-10T10:00:06.999Z,2.97
2018-02-10T10:02:35.132Z,3.20
2018-02-10T10:05:03.397Z,3.60
2018-02-10T10:07:31.633Z,3.27
2018-02-10T10:09:59.785Z,3.20
2018-02-10T10:12:28.404Z,3.23
2018-02-10T10:14:57.343Z,3.00
2018-02-10T10:17:25.620Z,3.20
2018-02-10T10:19:53.776Z,3.27
2018-02-10T10:22:21.955Z,3.20
2018-02-10T10:24:50.078Z,3.07
2018-02-10T10:27:18.253Z,3.00
2018-02-10T10:29:46.405Z,3.27
2018-02-10T10:32:14.529Z,3.20
2018-02-10T10:34:42.688Z,3.07
2018-02-10T10:37:10.856Z,3.33
2018-02-10T10:39:39.008Z,2.83
2018-02-10T10:42:07.154Z,3.30
2018-02-10T10:44:35.338Z,3.10
2018-02-10T10:47:03.511Z,2.70
2018-02-10T10:49:31.664Z,3.10
2018-02-10T10:51:59.845Z,2.90
2018-02-10T10:54:27.998Z,3.60
2018-02-10T10:56:56.159Z,2.90
2018-02-10T10:59:24.342Z,4.43
2018-02-10T11:01:52.477Z,3.10
2018-02-10T11:04:22.710Z,3.10
2018-02-10T11:06:50.895Z,2.97
2018-02-10T11:09:19.856Z,3.10
2018-02-10T11:11:48.006Z,3.03
2018-02-10T11:14:16.273Z,2.97
2018-02-10T11:16:44.509Z,2.90
2018-02-10T11:19:13.412Z,3.00
2018-02-10T11:21:41.589Z,3.23
2018-02-10T11:24:09.754Z,3.60
2018-02-10T11:26:37.937Z,5.73
2018-02-10T11:29:06.110Z,6.90
2018-02-10T11:31:35.028Z,4.93
2018-02-10T11:34:03.340Z,4.33
2018-02-10T11:36:32.278Z,4.30
2018-02-10T11:39:00.427Z,4.00
2018-02-10T11:41:28.591Z,4.22
2018-02-10T11:43:56.742Z,3.60
2018-02-10T11:46:25.691Z,3.63
2018-02-10T11:48:53.911Z,3.40
2018-02-10T11:51:22.073Z,3.50
2018-02-10T11:53:50.227Z,3.40
2018-02-10T11:56:18.950Z,3.03
2018-02-10T11:58:47.110Z,3.37
2018-02-10T12:01:15.255Z,2.90
2018-02-10T12:03:43.429Z,3.13
2018-02-10T12:06:11.594Z,3.03
2018-02-10T12:08:39.774Z,3.00
2018-02-10T12:11:08.869Z,3.00
2018-02-10T12:13:37.086Z,3.50
2018-02-10T12:16:05.623Z,2.80
2018-02-10T12:18:33.787Z,2.83
2018-02-10T12:21:01.979Z,2.83
2018-02-10T12:23:30.211Z,2.80
2018-02-10T12:25:58.504Z,3.40
2018-02-10T12:28:26.698Z,2.80
2018-02-10T12:30:54.884Z,2.80
2018-02-10T12:33:23.651Z,2.80
2018-02-10T12:35:51.811Z,3.00
2018-02-10T12:38:21.223Z,2.73
2018-02-10T12:40:49.401Z,2.93
2018-02-10T12:43:17.639Z,3.10
2018-02-10T12:45:45.795Z,3.03
2018-02-10T12:48:30.053Z,3.30
2018-02-10T12:50:58.227Z,2.90
2018-02-10T12:53:26.453Z,3.10
2018-02-10T12:55:54.678Z,3.20
2018-02-10T12:58:22.879Z,2.87
2018-02-10T13:00:51.804Z,2.87
2018-02-10T13:03:19.977Z,3.00
2018-02-10T13:05:48.149Z,3.00
2018-02-10T13:08:16.315Z,3.10
2018-02-10T13:10:44.498Z,2.83
2018-02-10T13:13:12.649Z,3.07
2018-02-10T13:15:41.622Z,3.37
2018-02-10T13:18:10.559Z,3.10
2018-02-10T13:20:38.703Z,2.90
2018-02-10T13:23:11.534Z,2.90
2018-02-10T13:25:39.766Z,3.00
2018-02-10T13:28:07.963Z,3.40
2018-02-10T13:30:36.426Z,3.03
2018-02-10T13:33:04.693Z,3.17
2018-02-10T13:35:33.992Z,2.50
2018-02-10T13:38:02.991Z,3.00
2018-02-10T13:40:31.228Z,3.10
2018-02-10T13:42:59.426Z,3.23
2018-02-10T13:45:27.594Z,2.97
2018-02-10T13:47:56.528Z,2.63
2018-02-10T13:50:24.666Z,3.00
2018-02-10T13:52:53.618Z,2.97
2018-02-10T13:55:21.771Z,2.50
2018-02-10T13:57:49.930Z,2.60
2018-02-10T14:00:18.200Z,2.70
2018-02-10T14:02:46.357Z,2.70
2018-02-10T14:05:15.320Z,2.70
2018-02-10T14:07:44.271Z,2.83
2018-02-10T14:10:12.433Z,2.73
2018-02-10T14:12:40.613Z,2.80
2018-02-10T14:15:08.784Z,2.50
